createdAt,value
2022-08-16T00:01:02.421Z,19.40
2022-08-16T00:03:32.267Z,19.35
2022-08-16T00:06:04.678Z,19.30
2022-08-16T00:08:36.886Z,19.26
2022-08-16T00:11:15.304Z,19.24
2022-08-16T00:13:53.726Z,19.21
2022-08-16T00:17:06.637Z,19.17
2022-08-16T00:19:16.982Z,19.08
2022-08-16T00:21:44.234Z,19.04
2022-08-16T00:24:12.701Z,18.97
2022-08-16T00:26:43.782Z,18.92
2022-08-16T00:29:15.682Z,18.94
2022-08-16T00:31:59.259Z,18.87
2022-08-16T00:34:43.951Z,18.87
2022-08-16T00:37:12.850Z,18.81
2022-08-16T00:39:44.669Z,18.78
2022-08-16T00:42:11.858Z,18.74
2022-08-16T00:44:40.004Z,18.75
2022-08-16T00:47:10.555Z,18.75
2022-08-16T00:49:39.553Z,18.76
2022-08-16T00:52:29.996Z,18.69
2022-08-16T00:54:59.008Z,18.70
2022-08-16T00:57:27.592Z,18.64
2022-08-16T01:00:20.265Z,18.58
2022-08-16T01:02:50.950Z,18.58
2022-08-16T01:05:19.485Z,18.56
2022-08-16T01:07:53.159Z,18.53
2022-08-16T01:10:32.048Z,18.50
2022-08-16T01:13:23.503Z,18.48
2022-08-16T01:16:10.475Z,18.42
2022-08-16T01:18:46.363Z,18.40
2022-08-16T01:21:24.752Z,18.33
2022-08-16T01:24:51.835Z,18.39
2022-08-16T01:27:17.397Z,18.32
2022-08-16T01:30:01.510Z,18.31
2022-08-16T01:32:33.690Z,18.26
2022-08-16T01:35:02.950Z,18.20
2022-08-16T01:37:35.936Z,18.17
2022-08-16T01:40:07.133Z,18.11
2022-08-16T01:42:35.205Z,18.08
2022-08-16T01:45:02.145Z,18.05
2022-08-16T01:47:29.854Z,18.08
2022-08-16T01:50:41.759Z,18.03
2022-08-16T01:52:47.437Z,18.01
2022-08-16T01:55:17.399Z,17.99
2022-08-16T01:57:53.584Z,17.93
2022-08-16T02:00:29.322Z,17.93
2022-08-16T02:02:57.040Z,17.89
2022-08-16T02:05:24.014Z,17.95
2022-08-16T02:07:51.927Z,17.90
2022-08-16T02:10:19.358Z,17.88
2022-08-16T02:12:51.629Z,17.83
2022-08-16T02:15:25.920Z,17.76
2022-08-16T02:17:54.274Z,17.75
2022-08-16T02:20:26.309Z,17.75
2022-08-16T02:22:55.915Z,17.74
2022-08-16T02:25:22.783Z,17.76
2022-08-16T02:27:51.125Z,17.73
2022-08-16T02:30:37.964Z,17.72
2022-08-16T02:33:11.880Z,17.69
2022-08-16T02:35:49.819Z,17.68
2022-08-16T02:38:22.483Z,17.69
2022-08-16T02:40:49.029Z,17.68
2022-08-16T02:43:16.028Z,17.74
2022-08-16T02:45:42.708Z,17.70
2022-08-16T02:48:29.190Z,17.68
2022-08-16T02:51:06.236Z,17.73
2022-08-16T02:53:43.431Z,17.74
2022-08-16T02:56:11.225Z,17.73
2022-08-16T02:58:39.048Z,17.73
2022-08-16T03:01:07.209Z,17.72
2022-08-16T03:04:39.566Z,17.71
2022-08-16T03:06:41.934Z,17.67
2022-08-16T03:09:13.748Z,17.59
2022-08-16T03:11:42.241Z,17.60
2022-08-16T03:14:08.887Z,17.56
2022-08-16T03:16:58.747Z,17.55
2022-08-16T03:19:25.365Z,17.61
2022-08-16T03:21:51.965Z,17.65
2022-08-16T03:24:27.553Z,17.62
2022-08-16T03:26:58.919Z,17.56
2022-08-16T03:29:32.007Z,17.48
2022-08-16T03:32:01.213Z,17.53
2022-08-16T03:34:28.986Z,17.55
2022-08-16T03:36:57.029Z,17.57
2022-08-16T03:39:23.800Z,17.60
2022-08-16T03:41:59.289Z,17.56
2022-08-16T03:44:43.465Z,17.53
2022-08-16T03:47:11.891Z,17.44
2022-08-16T03:49:38.738Z,17.49
2022-08-16T03:52:05.922Z,17.41
2022-08-16T03:54:32.646Z,17.37
2022-08-16T03:57:02.821Z,17.34
2022-08-16T03:59:31.881Z,17.36
2022-08-16T04:02:01.118Z,17.29
2022-08-16T04:04:33.268Z,17.39
2022-08-16T04:07:06.961Z,17.33
2022-08-16T04:09:35.463Z,17.33
2022-08-16T04:12:10.842Z,17.36
2022-08-16T04:14:52.734Z,17.35
2022-08-16T04:17:20.930Z,17.39
2022-08-16T04:19:47.599Z,17.46
2022-08-16T04:22:19.550Z,17.46
2022-08-16T04:24:54.337Z,17.45
2022-08-16T04:27:22.436Z,17.45
2022-08-16T04:29:52.216Z,17.45
2022-08-16T04:32:19.860Z,17.57
2022-08-16T04:34:46.639Z,17.64
2022-08-16T04:37:13.959Z,17.68
2022-08-16T04:39:46.866Z,17.66
2022-08-16T04:42:17.975Z,17.69
2022-08-16T04:44:54.190Z,17.71
2022-08-16T04:47:24.611Z,17.70
2022-08-16T04:49:52.269Z,17.85
2022-08-16T04:52:33.936Z,17.85
2022-08-16T04:55:12.055Z,17.84
2022-08-16T04:57:39.620Z,17.94
2022-08-16T05:00:30.354Z,17.96
2022-08-16T05:02:58.879Z,17.98
2022-08-16T05:05:32.766Z,18.06
2022-08-16T05:08:01.186Z,18.11
2022-08-16T05:10:47.651Z,18.25
2022-08-16T05:13:15.495Z,18.19
2022-08-16T05:15:42.231Z,18.27
2022-08-16T05:18:15.819Z,18.36
2022-08-16T05:20:54.263Z,18.50
2022-08-16T05:23:31.775Z,18.53
2022-08-16T05:25:59.699Z,18.59
2022-08-16T05:28:30.902Z,18.60
2022-08-16T05:31:04.626Z,18.65
2022-08-16T05:33:33.438Z,18.70
2022-08-16T05:36:00.498Z,18.74
2022-08-16T05:38:39.012Z,18.78
2022-08-16T05:41:06.904Z,18.87
2022-08-16T05:43:43.543Z,18.92
2022-08-16T05:46:28.752Z,19.05
2022-08-16T05:49:03.772Z,19.18
2022-08-16T05:51:37.726Z,19.26
2022-08-16T05:54:07.499Z,19.41
2022-08-16T05:56:34.221Z,19.57
2022-08-16T05:59:06.224Z,19.73
2022-08-16T06:01:38.535Z,19.80
2022-08-16T06:04:13.459Z,19.92
2022-08-16T06:06:57.296Z,20.02
2022-08-16T06:09:42.649Z,20.03
2022-08-16T06:12:12.276Z,20.39
2022-08-16T06:14:39.997Z,20.55
2022-08-16T06:17:07.242Z,20.77
2022-08-16T06:19:35.622Z,21.10
2022-08-16T06:22:02.415Z,21.70
2022-08-16T06:24:53.420Z,22.39
2022-08-16T06:27:15.467Z,23.53
2022-08-16T06:29:44.677Z,24.97
2022-08-16T06:32:26.193Z,26.60
2022-08-16T06:34:56.963Z,27.59
2022-08-16T06:37:37.006Z,28.99
2022-08-16T06:40:12.982Z,30.36
2022-08-16T06:42:47.641Z,32.09
2022-08-16T06:45:24.025Z,33.09
2022-08-16T06:47:53.466Z,33.83
2022-08-16T06:50:29.311Z,34.73
2022-08-16T06:53:08.737Z,35.19
2022-08-16T06:55:38.361Z,35.45
2022-08-16T06:58:08.375Z,35.93
2022-08-16T07:00:37.540Z,35.91
2022-08-16T07:03:27.781Z,34.65
2022-08-16T07:05:53.899Z,35.29
2022-08-16T07:08:20.853Z,35.76
2022-08-16T07:10:47.360Z,36.84
2022-08-16T07:13:26.525Z,37.55
2022-08-16T07:16:02.640Z,37.38
2022-08-16T07:18:29.121Z,37.70
2022-08-16T07:21:01.809Z,37.03
2022-08-16T07:23:34.986Z,37.93
2022-08-16T07:26:08.375Z,36.64
2022-08-16T07:28:35.455Z,36.45
2022-08-16T07:31:03.227Z,37.20
2022-08-16T07:33:51.749Z,36.63
2022-08-16T07:36:22.634Z,35.08
2022-08-16T07:38:49.969Z,35.58
2022-08-16T07:41:16.903Z,36.31
2022-08-16T07:43:43.737Z,35.76
2022-08-16T07:46:39.671Z,34.79
2022-08-16T07:49:02.371Z,34.83
2022-08-16T07:51:35.542Z,36.99
2022-08-16T07:54:09.370Z,37.71
2022-08-16T07:56:37.602Z,38.69
2022-08-16T07:59:07.574Z,38.57
2022-08-16T08:01:34.688Z,39.45
2022-08-16T08:04:02.580Z,40.34
2022-08-16T08:06:31.247Z,40.93
2022-08-16T08:08:59.478Z,42.02
2022-08-16T08:11:28.009Z,40.46
2022-08-16T08:13:56.714Z,39.61
2022-08-16T08:16:30.546Z,39.49
2022-08-16T08:19:02.281Z,39.96
2022-08-16T08:21:58.314Z,39.13
2022-08-16T08:24:18.384Z,39.88
2022-08-16T08:26:50.001Z,38.84
2022-08-16T08:29:22.806Z,41.06
2022-08-16T08:31:52.489Z,40.20
2022-08-16T08:34:21.120Z,41.69
2022-08-16T08:36:48.906Z,39.31
2022-08-16T08:39:21.359Z,40.70
2022-08-16T08:41:49.468Z,40.06
2022-08-16T08:44:28.387Z,40.54
2022-08-16T08:47:00.199Z,40.48
2022-08-16T08:49:46.673Z,40.30
2022-08-16T08:52:34.097Z,41.75
2022-08-16T08:55:03.301Z,42.37
2022-08-16T08:57:43.890Z,42.28
2022-08-16T09:00:13.650Z,42.37
2022-08-16T09:02:42.828Z,42.05
2022-08-16T09:05:14.866Z,43.35
2022-08-16T09:08:00.172Z,43.82
2022-08-16T09:10:29.392Z,43.11
2022-08-16T09:12:56.716Z,43.46
2022-08-16T09:15:23.968Z,43.58
2022-08-16T09:17:53.620Z,44.85
2022-08-16T09:20:23.698Z,43.88
2022-08-16T09:22:52.636Z,43.76
2022-08-16T09:25:25.709Z,42.64
2022-08-16T09:27:57.261Z,44.35
2022-08-16T09:30:43.408Z,44.65
2022-08-16T09:33:12.540Z,44.67
2022-08-16T09:35:42.739Z,43.62
2022-08-16T09:38:12.281Z,45.32
2022-08-16T09:40:43.354Z,44.90
2022-08-16T09:43:37.758Z,45.28
2022-08-16T09:45:59.047Z,45.05
2022-08-16T09:48:44.327Z,42.47
2022-08-16T09:51:13.356Z,40.34
2022-08-16T09:53:41.199Z,41.26
2022-08-16T09:56:23.001Z,39.93
2022-08-16T09:59:03.712Z,41.09
2022-08-16T10:01:33.519Z,42.30
2022-08-16T10:04:02.708Z,42.49
2022-08-16T10:06:33.330Z,41.35
2022-08-16T10:09:05.247Z,42.41
2022-08-16T10:11:55.322Z,41.23
2022-08-16T10:14:24.873Z,40.47
2022-08-16T10:17:05.007Z,40.77
2022-08-16T10:19:32.383Z,39.77
2022-08-16T10:21:59.814Z,41.44
2022-08-16T10:24:32.389Z,39.61
2022-08-16T10:27:18.632Z,41.60
2022-08-16T10:29:59.386Z,42.52
2022-08-16T10:32:30.374Z,42.57
2022-08-16T10:34:57.472Z,43.78
2022-08-16T10:37:32.722Z,45.26
2022-08-16T10:40:04.039Z,43.65
2022-08-16T10:42:30.987Z,43.13
2022-08-16T10:44:57.423Z,44.53
2022-08-16T10:47:23.947Z,44.49
2022-08-16T10:49:51.192Z,42.10
2022-08-16T10:52:18.183Z,43.47
2022-08-16T10:57:32.936Z,38.95
2022-08-16T11:00:01.194Z,40.81
2022-08-16T11:03:04.738Z,41.66
2022-08-16T11:05:16.426Z,42.85
2022-08-16T11:07:52.484Z,42.60
2022-08-16T11:13:57.298Z,43.33
2022-08-16T11:19:06.120Z,40.24
2022-08-16T11:22:22.925Z,40.62
2022-08-16T11:24:41.919Z,41.04
2022-08-16T11:27:24.183Z,40.01
2022-08-16T11:29:59.554Z,41.94
2022-08-16T11:32:31.890Z,42.71
2022-08-16T11:35:13.406Z,40.89
2022-08-16T11:41:00.228Z,39.83
2022-08-16T11:43:30.561Z,40.26
2022-08-16T11:45:59.893Z,39.96
2022-08-16T11:48:47.782Z,35.86
2022-08-16T11:51:14.382Z,36.94
2022-08-16T11:53:40.923Z,39.06
2022-08-16T11:56:08.296Z,39.10
2022-08-16T11:58:39.417Z,36.22
2022-08-16T12:01:08.039Z,35.83
2022-08-16T12:03:38.058Z,35.47
2022-08-16T12:06:24.618Z,37.51
2022-08-16T12:08:55.543Z,38.98
2022-08-16T12:11:22.375Z,37.35
2022-08-16T12:13:49.877Z,36.93
2022-08-16T12:16:20.613Z,36.10
2022-08-16T12:21:19.631Z,37.27
2022-08-16T12:23:46.217Z,37.72
2022-08-16T12:26:13.091Z,36.96
2022-08-16T12:28:54.489Z,36.46
2022-08-16T12:31:22.924Z,37.48
2022-08-16T12:33:50.752Z,38.34
2022-08-16T12:36:21.453Z,38.11
2022-08-16T12:38:53.176Z,38.26
2022-08-16T12:41:25.525Z,38.99
2022-08-16T12:43:52.717Z,38.45
2022-08-16T12:46:24.548Z,38.16
2022-08-16T12:49:00.110Z,37.49
2022-08-16T12:51:58.400Z,35.94
2022-08-16T12:54:23.597Z,36.05
2022-08-16T12:56:50.413Z,36.16
2022-08-16T12:59:20.334Z,35.38
2022-08-16T13:01:50.530Z,34.01
2022-08-16T13:04:24.606Z,33.30
2022-08-16T13:06:52.330Z,33.96
2022-08-16T13:09:26.611Z,33.56
2022-08-16T13:12:04.402Z,33.22
2022-08-16T13:14:40.046Z,33.31
2022-08-16T13:17:18.552Z,33.91
2022-08-16T13:22:32.839Z,34.93
2022-08-16T13:24:59.432Z,33.79
2022-08-16T13:27:59.055Z,34.07
2022-08-16T13:30:35.614Z,34.41
2022-08-16T13:33:00.435Z,34.96
2022-08-16T13:35:27.813Z,35.27
2022-08-16T13:38:01.351Z,35.78
2022-08-16T13:40:27.902Z,35.49
2022-08-16T13:42:54.435Z,35.18
2022-08-16T13:45:20.961Z,35.24
2022-08-16T13:47:48.623Z,35.80
2022-08-16T13:50:31.471Z,35.14
2022-08-16T13:53:07.376Z,35.47
2022-08-16T13:55:34.701Z,35.86
2022-08-16T13:58:37.118Z,36.31
2022-08-16T14:00:49.153Z,36.70
2022-08-16T14:03:21.098Z,35.70
2022-08-16T14:05:47.714Z,35.40
2022-08-16T14:08:14.300Z,34.73
2022-08-16T14:10:41.063Z,34.00
2022-08-16T14:13:07.573Z,33.49
2022-08-16T14:15:46.756Z,33.23
2022-08-16T14:18:17.487Z,33.24
2022-08-16T14:20:48.582Z,33.64
2022-08-16T14:23:17.889Z,34.17
2022-08-16T14:25:54.358Z,33.69
2022-08-16T14:28:21.913Z,34.06
2022-08-16T14:30:50.558Z,33.91
2022-08-16T14:33:17.975Z,33.97
2022-08-16T14:35:50.524Z,33.83
2022-08-16T14:38:19.191Z,34.24
2022-08-16T14:40:55.487Z,34.58
2022-08-16T14:43:23.780Z,34.73
2022-08-16T14:45:50.624Z,34.99
2022-08-16T14:48:24.651Z,35.18
2022-08-16T14:50:52.739Z,35.11
2022-08-16T14:53:19.280Z,35.23
2022-08-16T14:55:46.157Z,35.21
2022-08-16T14:58:19.386Z,35.38
2022-08-16T15:00:47.860Z,35.21
2022-08-16T15:03:17.725Z,34.83
2022-08-16T15:05:44.353Z,34.34
2022-08-16T15:08:11.218Z,34.01
2022-08-16T15:10:38.935Z,34.12
2022-08-16T15:13:09.558Z,34.36
2022-08-16T15:15:37.828Z,34.42
2022-08-16T15:18:06.248Z,34.47
2022-08-16T15:20:38.509Z,34.46
2022-08-16T15:23:08.430Z,34.61
2022-08-16T15:25:41.466Z,34.46
2022-08-16T15:28:24.067Z,34.45
2022-08-16T15:31:00.580Z,34.64
2022-08-16T15:33:32.184Z,34.40
2022-08-16T15:35:59.356Z,34.38
2022-08-16T15:38:54.602Z,34.47
2022-08-16T15:41:38.968Z,34.43
2022-08-16T15:44:12.429Z,34.40
2022-08-16T15:46:56.271Z,34.17
2022-08-16T15:49:37.047Z,34.26
2022-08-16T15:52:07.866Z,34.43
2022-08-16T15:54:38.112Z,34.17
2022-08-16T15:57:24.185Z,34.12
2022-08-16T15:59:52.546Z,34.17
2022-08-16T16:02:29.664Z,34.03
2022-08-16T16:05:01.903Z,33.61
2022-08-16T16:07:30.100Z,33.78
2022-08-16T16:09:58.317Z,33.88
2022-08-16T16:12:51.308Z,33.43
2022-08-16T16:15:16.449Z,33.09
2022-08-16T16:17:43.980Z,33.29
2022-08-16T16:20:17.722Z,33.31
2022-08-16T16:22:44.580Z,33.24
2022-08-16T16:25:11.487Z,33.16
2022-08-16T16:27:38.380Z,33.10
2022-08-16T16:30:18.277Z,33.19
2022-08-16T16:32:52.179Z,33.29
2022-08-16T16:35:18.778Z,32.95
2022-08-16T16:37:52.062Z,32.88
2022-08-16T16:40:28.931Z,32.80
2022-08-16T16:42:59.996Z,32.87
2022-08-16T16:45:34.902Z,32.68
2022-08-16T16:48:12.313Z,32.57
2022-08-16T16:50:44.619Z,32.27
2022-08-16T16:53:17.466Z,32.15
2022-08-16T16:55:52.280Z,31.67
2022-08-16T16:58:43.390Z,31.46
2022-08-16T17:01:20.438Z,31.34
2022-08-16T17:03:53.478Z,31.22
2022-08-16T17:06:20.580Z,31.17
2022-08-16T17:08:47.770Z,30.94
2022-08-16T17:11:17.944Z,30.71
2022-08-16T17:13:44.645Z,30.62
2022-08-16T17:16:18.438Z,30.55
2022-08-16T17:19:14.756Z,30.43
2022-08-16T17:21:34.405Z,30.23
2022-08-16T17:24:04.252Z,30.15
2022-08-16T17:26:49.129Z,29.97
2022-08-16T17:29:23.491Z,29.94
2022-08-16T17:32:02.583Z,29.85
2022-08-16T17:34:50.657Z,29.68
2022-08-16T17:37:17.892Z,29.55
2022-08-16T17:40:05.956Z,29.49
2022-08-16T17:42:33.608Z,29.27
2022-08-16T17:45:00.556Z,29.18
2022-08-16T17:47:27.176Z,28.89
2022-08-16T17:49:53.718Z,28.80
2022-08-16T17:52:20.209Z,28.69
2022-08-16T17:54:46.756Z,28.51
2022-08-16T17:57:13.534Z,28.38
2022-08-16T17:59:43.488Z,28.23
2022-08-16T18:02:44.199Z,28.20
2022-08-16T18:04:56.498Z,28.05
2022-08-16T18:07:22.981Z,27.85
2022-08-16T18:09:50.581Z,27.73
2022-08-16T18:12:51.158Z,27.62
2022-08-16T18:15:11.654Z,27.50
2022-08-16T18:17:38.213Z,27.39
2022-08-16T18:20:29.006Z,27.23
2022-08-16T18:23:06.980Z,27.12
2022-08-16T18:25:34.854Z,26.99
2022-08-16T18:28:01.442Z,26.88
2022-08-16T18:30:27.977Z,26.80
2022-08-16T18:32:54.592Z,26.66
2022-08-16T18:35:21.327Z,26.59
2022-08-16T18:37:48.402Z,26.61
2022-08-16T18:40:15.323Z,26.55
2022-08-16T18:42:52.983Z,26.60
2022-08-16T18:45:19.426Z,26.52
2022-08-16T18:47:45.860Z,26.51
2022-08-16T18:50:12.527Z,26.46
2022-08-16T18:52:48.327Z,26.45
2022-08-16T18:55:15.087Z,26.45
2022-08-16T18:57:42.253Z,26.43
2022-08-16T19:00:12.297Z,26.48
2022-08-16T19:02:56.018Z,26.48
2022-08-16T19:05:27.529Z,26.47
2022-08-16T19:07:54.001Z,26.45
2022-08-16T19:10:22.700Z,26.45
2022-08-16T19:12:49.715Z,26.42
2022-08-16T19:15:21.143Z,26.45
2022-08-16T19:17:48.015Z,26.45
2022-08-16T19:20:18.464Z,26.43
2022-08-16T19:23:05.114Z,26.39
2022-08-16T19:25:46.954Z,26.31
2022-08-16T19:28:49.281Z,26.25
2022-08-16T19:31:04.507Z,26.21
2022-08-16T19:33:31.185Z,26.17
2022-08-16T19:35:57.694Z,26.17
2022-08-16T19:38:24.194Z,26.17
2022-08-16T19:40:50.836Z,26.07
2022-08-16T19:43:17.437Z,26.16
2022-08-16T19:45:46.113Z,26.15
2022-08-16T19:48:12.974Z,26.09
2022-08-16T19:50:39.564Z,26.06
2022-08-16T19:53:12.340Z,26.10
2022-08-16T19:55:45.805Z,26.12
2022-08-16T19:58:15.271Z,26.14
2022-08-16T20:00:43.237Z,26.07
2022-08-16T20:03:13.505Z,26.06
2022-08-16T20:05:41.875Z,26.03
2022-08-16T20:08:11.187Z,26.02
2022-08-16T20:10:39.777Z,25.98
2022-08-16T20:13:15.031Z,25.94
2022-08-16T20:15:42.776Z,25.91
2022-08-16T20:18:21.496Z,25.88
2022-08-16T20:20:52.883Z,25.88
2022-08-16T20:23:24.496Z,25.85
2022-08-16T20:25:55.463Z,25.83
2022-08-16T20:28:33.412Z,25.77
2022-08-16T20:31:09.988Z,25.73
2022-08-16T20:33:36.619Z,25.75
2022-08-16T20:36:03.985Z,25.73
2022-08-16T20:38:31.188Z,25.67
2022-08-16T20:40:57.678Z,25.64
2022-08-16T20:43:24.152Z,25.55
2022-08-16T20:45:50.664Z,25.51
2022-08-16T20:48:17.215Z,25.49
2022-08-16T20:50:43.886Z,25.46
2022-08-16T20:53:11.106Z,25.45
2022-08-16T20:55:39.956Z,25.36
2022-08-16T20:58:06.437Z,25.35
2022-08-16T21:00:33.597Z,25.32
2022-08-16T21:03:01.524Z,25.31
2022-08-16T21:05:31.299Z,25.26
2022-08-16T21:07:58.791Z,25.25
2022-08-16T21:10:26.963Z,25.18
2022-08-16T21:12:56.236Z,25.15
2022-08-16T21:15:25.350Z,25.09
2022-08-16T21:17:52.239Z,25.08
2022-08-16T21:20:20.025Z,25.05
2022-08-16T21:22:54.943Z,25.05
2022-08-16T21:25:23.271Z,25.02
2022-08-16T21:28:40.793Z,24.99
2022-08-16T21:30:38.513Z,24.96
2022-08-16T21:33:07.808Z,24.93
2022-08-16T21:35:34.983Z,24.92
2022-08-16T21:38:29.676Z,24.88
2022-08-16T21:40:48.466Z,24.83
2022-08-16T21:43:20.229Z,24.86
2022-08-16T21:45:47.721Z,24.89
2022-08-16T21:48:14.349Z,25.01
2022-08-16T21:50:42.619Z,24.85
2022-08-16T21:53:11.835Z,24.76
2022-08-16T21:55:40.308Z,24.73
2022-08-16T21:58:07.068Z,24.69
2022-08-16T22:00:34.686Z,24.64
2022-08-16T22:03:03.430Z,24.62
2022-08-16T22:05:34.242Z,24.57
2022-08-16T22:08:01.673Z,24.52
2022-08-16T22:11:07.159Z,24.49
2022-08-16T22:13:26.544Z,24.43
2022-08-16T22:15:53.770Z,24.49
2022-08-16T22:18:20.686Z,24.59
2022-08-16T22:20:47.996Z,24.58
2022-08-16T22:23:18.500Z,24.58
2022-08-16T22:25:46.927Z,24.57
2022-08-16T22:28:13.938Z,24.48
2022-08-16T22:30:40.934Z,24.39
2022-08-16T22:33:27.318Z,24.33
2022-08-16T22:35:56.359Z,24.29
2022-08-16T22:38:54.324Z,24.23
2022-08-16T22:41:09.915Z,24.18
2022-08-16T22:43:36.410Z,24.14
2022-08-16T22:46:02.974Z,24.10
2022-08-16T22:48:30.921Z,24.15
2022-08-16T22:51:05.775Z,24.07
2022-08-16T22:53:32.345Z,24.00
2022-08-16T22:55:58.759Z,23.88
2022-08-16T22:58:34.211Z,23.82
2022-08-16T23:01:05.906Z,23.76
2022-08-16T23:03:32.792Z,23.66
2022-08-16T23:06:00.454Z,23.64
2022-08-16T23:08:38.337Z,23.58
2022-08-16T23:11:15.026Z,23.57
2022-08-16T23:13:50.033Z,23.51
2022-08-16T23:16:33.310Z,23.41
2022-08-16T23:19:06.789Z,23.33
2022-08-16T23:21:35.318Z,23.27
2022-08-16T23:24:03.261Z,23.25
2022-08-16T23:26:46.563Z,23.21
2022-08-16T23:29:23.820Z,23.14
2022-08-16T23:31:56.169Z,23.08
2022-08-16T23:34:23.441Z,23.06
2022-08-16T23:36:50.175Z,23.00
2022-08-16T23:39:17.238Z,23.02
2022-08-16T23:41:44.856Z,22.95
2022-08-16T23:44:57.520Z,22.89
2022-08-16T23:46:58.964Z,22.86
2022-08-16T23:50:02.623Z,22.84
2022-08-16T23:52:12.095Z,22.77
2022-08-16T23:54:38.580Z,22.74
2022-08-16T23:57:05.221Z,22.62
2022-08-16T23:59:35.943Z,22.57
